Time;durP1;ratioP1;P1;durP2;ratioP2;P2;SDS_P1;SDS_P2;PMS_P1;PMS_P2;Temp;Humidity;BMP_temperature;BMP_pressure;BME280_temperature;BME280_humidity;BME280_pressure;Samples;Min_cycle;Max_cycle;Signal;HPM_P1;HPM_P2
2023/07/09 00:00:49;;;;;;;5.65;4.50;;;;;;;27.42;33.76;100077.66;5036643;28;20077;-78
2023/07/09 00:03:16;;;;;;;6.15;4.47;;;;;;;27.40;33.82;100085.13;5035851;28;20098;-78
2023/07/09 00:05:45;;;;;;;6.07;4.28;;;;;;;27.40;33.82;100085.13;5053985;28;20131;-77
2023/07/09 00:08:33;;;;;;;7.03;4.30;;;;;;;27.32;33.65;100094.16;5054120;28;20049;-78
2023/07/09 00:11:00;;;;;;;5.28;4.00;;;;;;;27.37;33.73;100086.34;5054271;28;20060;-79
2023/07/09 00:13:27;;;;;;;4.20;3.72;;;;;;;27.35;33.77;100084.88;5053599;28;20644;-79
2023/07/09 00:15:59;;;;;;;6.78;3.97;;;;;;;27.34;33.80;100086.72;5053926;28;20053;-79
2023/07/09 00:18:26;;;;;;;4.07;3.50;;;;;;;27.36;33.62;100087.34;5054053;28;20048;-78
2023/07/09 00:20:53;;;;;;;4.85;4.13;;;;;;;27.37;33.45;100088.22;5036386;28;20544;-77
2023/07/09 00:23:20;;;;;;;5.47;3.92;;;;;;;27.36;33.46;100087.34;5053725;28;20464;-77
2023/07/09 00:25:47;;;;;;;7.50;4.03;;;;;;;27.38;33.38;100093.44;5053558;28;20516;-78
2023/07/09 00:28:18;;;;;;;6.30;4.10;;;;;;;27.39;33.47;100089.69;5053886;28;20045;-78
2023/07/09 00:30:45;;;;;;;5.75;4.30;;;;;;;27.40;33.48;100085.13;5053603;28;20053;-78
2023/07/09 00:33:18;;;;;;;5.55;4.25;;;;;;;27.41;33.35;100087.66;5053484;28;20053;-78
2023/07/09 00:35:50;;;;;;;5.97;4.53;;;;;;;27.43;33.40;100090.13;5035466;28;20136;-78
2023/07/09 00:38:22;;;;;;;5.93;4.40;;;;;;;27.44;33.48;100086.44;5053725;28;20102;-78
2023/07/09 00:40:59;;;;;;;4.90;3.70;;;;;;;27.43;33.34;100082.88;5053392;28;20049;-78
2023/07/09 00:43:30;;;;;;;5.20;3.72;;;;;;;27.46;33.36;100073.53;5053622;28;20095;-78
2023/07/09 00:46:19;;;;;;;4.57;4.03;;;;;;;27.42;33.09;100074.94;5053491;28;20044;-78
2023/07/09 00:48:50;;;;;;;4.60;3.85;;;;;;;27.45;33.20;100075.44;5053484;28;20057;-78
2023/07/09 00:51:20;;;;;;;6.50;3.97;;;;;;;27.44;33.48;100076.44;5053370;28;20049;-78
2023/07/09 00:53:51;;;;;;;4.57;4.18;;;;;;;27.44;33.74;100070.22;5053373;28;20072;-78
2023/07/09 00:56:27;;;;;;;4.93;4.22;;;;;;;27.38;33.44;100063.69;5053356;28;20136;-77
2023/07/09 00:58:57;;;;;;;5.05;3.55;;;;;;;27.40;33.13;100069.72;5052577;28;20080;-77
2023/07/09 01:01:24;;;;;;;5.85;3.88;;;;;;;27.38;33.26;100066.41;5053179;28;20546;-78
2023/07/09 01:03:58;;;;;;;5.95;4.18;;;;;;;27.36;33.30;100067.63;5052882;28;20049;-78
2023/07/09 01:06:32;;;;;;;6.28;4.03;;;;;;;27.35;33.38;100065.94;5053121;28;20425;-78
2023/07/09 01:09:00;;;;;;;5.97;4.22;;;;;;;27.35;33.16;100065.94;5052987;28;20049;-78
2023/07/09 01:11:31;;;;;;;4.70;4.13;;;;;;;27.34;33.71;100064.25;5053214;28;20049;-78
2023/07/09 01:14:01;;;;;;;4.68;4.13;;;;;;;27.30;33.32;100075.47;5044769;28;20118;-78
2023/07/09 01:16:31;;;;;;;5.20;4.00;;;;;;;27.29;33.49;100072.94;5052889;28;20045;-78
2023/07/09 01:18:58;;;;;;;4.13;3.53;;;;;;;27.28;33.56;100076.69;5044583;28;20106;-78
2023/07/09 01:21:26;;;;;;;7.53;4.50;;;;;;;27.25;33.50;100066.25;5053057;28;20045;-78
2023/07/09 01:23:54;;;;;;;5.47;3.80;;;;;;;27.23;33.68;100068.28;5052591;28;20497;-77
2023/07/09 01:26:27;;;;;;;5.63;4.22;;;;;;;27.19;33.91;100067.84;5051969;28;20052;-78
2023/07/09 01:28:55;;;;;;;8.25;4.10;;;;;;;27.17;33.78;100067.22;5034312;28;20734;-78
2023/07/09 01:31:23;;;;;;;4.90;3.80;;;;;;;27.13;33.61;100069.44;5034904;28;20118;-78
2023/07/09 01:33:50;;;;;;;5.57;4.13;;;;;;;27.10;34.00;100069.81;5052527;28;20049;-78
2023/07/09 01:36:23;;;;;;;4.55;4.07;;;;;;;27.05;34.34;100080.34;5052539;28;20045;-78
2023/07/09 01:38:53;;;;;;;5.53;4.47;;;;;;;27.02;34.70;100073.47;5034668;28;20087;-78
2023/07/09 01:41:20;;;;;;;6.40;4.55;;;;;;;26.98;34.56;100077.56;5052245;28;20055;-77
2023/07/09 01:43:46;;;;;;;9.77;4.63;;;;;;;26.95;34.54;100080.66;5052537;28;20084;-78
2023/07/09 06:16:34;;;;;;;5.70;4.65;;;;;;;27.30;36.68;100110.59;5184663;22;20427;-81
2023/07/09 06:19:01;;;;;;;10.02;4.15;;;;;;;27.31;36.50;100111.41;5072849;28;20110;-81
2023/07/09 06:21:27;;;;;;;5.05;4.28;;;;;;;27.34;36.36;100116.47;5055310;28;20055;-81
2023/07/09 06:23:54;;;;;;;5.07;4.30;;;;;;;27.35;36.95;100103.78;5072356;28;20083;-81
2023/07/09 06:26:20;;;;;;;7.15;4.57;;;;;;;27.38;36.80;100109.66;5072206;28;20123;-81
2023/07/09 06:28:47;;;;;;;4.65;4.18;;;;;;;27.42;36.77;100118.19;5093357;22;20063;-80
2023/07/09 06:31:13;;;;;;;7.75;4.80;;;;;;;27.44;36.89;100116.97;5072246;28;20491;-80
2023/07/09 06:33:40;;;;;;;5.88;4.28;;;;;;;27.48;36.92;100122.03;5071862;28;20059;-80
2023/07/09 06:36:06;;;;;;;6.80;4.38;;;;;;;27.51;36.87;100118.94;5071665;28;20063;-80
2023/07/09 06:38:33;;;;;;;5.82;4.78;;;;;;;27.53;36.78;100119.56;5069253;28;20453;-80
2023/07/09 06:40:59;;;;;;;6.47;4.78;;;;;;;27.56;36.71;100120.06;5051572;28;20061;-80
2023/07/09 06:43:26;;;;;;;8.32;4.65;;;;;;;27.59;37.08;100116.13;5051729;28;20052;-80
2023/07/09 06:45:55;;;;;;;4.97;4.25;;;;;;;27.63;37.14;100113.91;5051699;28;20053;-80
2023/07/09 06:48:23;;;;;;;6.72;4.78;;;;;;;27.68;37.33;100119.56;5051441;28;20048;-81
2023/07/09 06:50:50;;;;;;;5.97;4.80;;;;;;;27.76;37.41;100108.63;5034089;28;20048;-81
2023/07/09 06:53:16;;;;;;;5.53;3.92;;;;;;;27.80;37.32;100112.63;5033461;28;20057;-81
2023/07/09 06:55:43;;;;;;;4.60;4.15;;;;;;;27.88;38.02;100113.53;5051428;28;20082;-81
2023/07/09 06:58:09;;;;;;;5.05;4.10;;;;;;;27.95;37.94;100115.25;5050731;28;20049;-81
2023/07/09 07:00:37;;;;;;;5.03;3.88;;;;;;;28.02;38.14;100109.06;5051463;28;20060;-81
2023/07/09 07:03:05;;;;;;;5.85;4.05;;;;;;;28.10;38.07;100111.63;5051407;28;20484;-81
2023/07/09 07:05:31;;;;;;;5.05;3.88;;;;;;;28.19;37.75;100117.75;5050739;28;20040;-81
2023/07/09 07:07:59;;;;;;;6.03;3.88;;;;;;;28.27;38.00;100120.34;5050767;28;20053;-81
2023/07/09 07:10:26;;;;;;;7.50;3.95;;;;;;;28.36;37.60;100115.63;5051403;28;20049;-81
2023/07/09 07:12:54;;;;;;;7.60;4.22;;;;;;;28.45;37.18;100117.16;5033898;28;20084;-81
2023/07/09 07:15:20;;;;;;;5.45;4.22;;;;;;;28.53;37.00;100124.31;5050999;28;20144;-81
2023/07/09 07:17:47;;;;;;;5.53;3.80;;;;;;;28.59;36.90;100123.50;5051173;28;20072;-81
2023/07/09 07:20:15;;;;;;;5.80;4.22;;;;;;;28.66;36.98;100126.25;5051147;28;20053;-81
2023/07/09 07:22:41;;;;;;;5.00;3.70;;;;;;;28.71;36.88;100118.34;5051258;28;20056;-81
2023/07/09 07:25:09;;;;;;;7.78;3.80;;;;;;;28.78;36.75;100123.00;5050663;28;20537;-81
2023/07/09 07:27:36;;;;;;;6.78;4.00;;;;;;;28.82;36.99;100130.50;5050984;28;20059;-80
2023/07/09 07:30:03;;;;;;;5.10;4.25;;;;;;;28.87;36.77;100133.47;5050912;28;20075;-80
2023/07/09 07:32:29;;;;;;;6.32;4.20;;;;;;;28.92;36.75;100132.91;5051508;28;20053;-80
2023/07/09 07:34:55;;;;;;;5.95;4.15;;;;;;;28.97;37.00;100132.31;5050466;28;20060;-81
2023/07/09 07:37:22;;;;;;;5.82;3.72;;;;;;;29.01;36.96;100133.59;5050670;28;20060;-80
2023/07/09 07:39:48;;;;;;;8.40;3.80;;;;;;;29.07;37.25;100135.47;5050784;28;20503;-80
2023/07/09 07:42:15;;;;;;;4.53;3.75;;;;;;;29.14;36.94;100130.09;5050880;28;20431;-80
2023/07/09 07:44:42;;;;;;;4.57;3.90;;;;;;;29.19;36.80;100130.31;5050536;28;20049;-81
2023/07/09 07:47:08;;;;;;;6.00;4.00;;;;;;;29.27;36.68;100132.03;5050574;28;20060;-80
2023/07/09 07:49:34;;;;;;;8.45;4.10;;;;;;;29.31;37.32;100136.00;5051052;28;20041;-80
2023/07/09 07:52:03;;;;;;;5.63;4.25;;;;;;;29.36;37.29;100130.81;5050767;28;20053;-80
2023/07/09 07:54:32;;;;;;;6.35;4.07;;;;;;;29.42;37.30;100140.00;5032936;28;20049;-80
2023/07/09 07:56:58;;;;;;;5.00;3.97;;;;;;;29.49;37.22;100138.16;5050370;28;20049;-82
2023/07/09 07:59:25;;;;;;;6.75;4.15;;;;;;;29.55;36.55;100141.09;5050554;28;20484;-79
2023/07/09 08:01:52;;;;;;;5.30;4.15;;;;;;;29.62;36.84;100140.09;5050135;28;20057;-79
2023/07/09 08:04:18;;;;;;;4.50;3.97;;;;;;;29.68;36.43;100130.31;5049966;28;20076;-80
2023/07/09 08:06:46;;;;;;;5.82;4.20;;;;;;;29.75;36.28;100139.28;5049791;28;20053;-80
2023/07/09 08:09:12;;;;;;;4.65;4.20;;;;;;;29.83;36.72;100141.00;5052808;28;20055;-80
2023/07/09 08:11:38;;;;;;;4.07;3.67;;;;;;;29.89;36.88;100128.44;5036414;28;20397;-82
2023/07/09 08:14:06;;;;;;;9.57;4.57;;;;;;;29.96;36.41;100133.88;5054170;28;20443;-81
2023/07/09 08:16:32;;;;;;;6.82;4.15;;;;;;;30.01;36.48;100134.94;5035719;28;20102;-80
2023/07/09 08:18:59;;;;;;;6.25;4.47;;;;;;;30.09;36.10;100122.22;5053668;28;20044;-80
2023/07/09 08:21:26;;;;;;;5.72;4.00;;;;;;;30.16;36.27;100125.81;5053986;28;20048;-80
2023/07/09 08:23:52;;;;;;;4.70;3.72;;;;;;;30.20;36.40;100127.03;5053873;28;20057;-80
2023/07/09 08:26:18;;;;;;;9.23;4.40;;;;;;;30.27;36.29;100127.88;5053406;28;20427;-80
2023/07/09 08:28:45;;;;;;;13.00;5.28;;;;;;;30.37;36.22;100126.63;5052988;28;20037;-80
2023/07/09 08:31:11;;;;;;;5.25;4.15;;;;;;;30.46;36.76;100124.53;5053260;28;20045;-80
2023/07/09 08:33:39;;;;;;;7.20;4.35;;;;;;;30.56;36.09;100124.94;5053857;28;20457;-80
2023/07/09 08:36:06;;;;;;;15.93;4.43;;;;;;;30.65;36.28;100118.22;5035799;28;20053;-80
2023/07/09 08:38:33;;;;;;;5.00;4.22;;;;;;;30.75;36.02;100111.53;5052929;28;20048;-80
2023/07/09 08:41:06;;;;;;;10.55;4.20;;;;;;;30.85;36.38;100121.97;5053298;28;20060;-79
2023/07/09 08:43:45;;;;;;;13.75;4.30;;;;;;;30.93;35.69;100116.31;5053555;28;20053;-80
2023/07/09 08:46:20;;;;;;;13.25;4.20;;;;;;;31.04;35.17;100121.09;5053517;28;20063;-80
2023/07/09 08:48:50;;;;;;;7.95;4.30;;;;;;;31.16;35.73;100121.25;5052649;28;20064;-80
2023/07/09 08:51:25;;;;;;;8.45;3.88;;;;;;;31.23;35.51;100117.66;5053395;28;20061;-80
2023/07/09 08:53:58;;;;;;;4.82;4.05;;;;;;;31.30;35.60;100111.16;5053116;28;20056;-80
2023/07/09 08:56:25;;;;;;;;;;;;;;;31.37;35.72;100115.75;5053474;28;20053;-80
2023/07/09 08:58:55;;;;;;;5.55;3.58;;;;;;;31.52;36.29;100119.03;5052866;28;19928;-80
2023/07/09 09:01:27;;;;;;;5.97;3.95;;;;;;;31.61;35.61;100124.22;5033276;28;20054;-80
2023/07/09 09:04:00;;;;;;;5.30;4.00;;;;;;;31.67;34.55;100116.00;5033255;28;20093;-82
2023/07/09 09:06:30;;;;;;;5.30;3.75;;;;;;;31.78;35.48;100125.34;5033751;28;20060;-82
2023/07/09 09:09:19;;;;;;;9.70;3.97;;;;;;;31.84;35.84;100119.00;5052538;28;20075;-82
2023/07/09 09:11:52;;;;;;;5.35;3.97;;;;;;;32.00;35.02;100124.19;5053206;28;20167;-82
2023/07/09 09:14:37;;;;;;;5.57;3.75;;;;;;;32.07;35.13;100122.25;5035199;28;20515;-82
2023/07/09 09:17:12;;;;;;;4.97;3.70;;;;;;;32.19;34.88;100116.91;5034575;28;20554;-82
2023/07/09 09:19:47;;;;;;;7.32;3.70;;;;;;;32.28;34.49;100129.19;5051837;28;20053;-82
2023/07/09 09:22:21;;;;;;;6.55;4.05;;;;;;;32.39;33.92;100121.34;5035248;28;20052;-82
2023/07/09 09:24:54;;;;;;;5.40;4.15;;;;;;;32.49;34.33;100121.69;5034758;28;20053;-82
2023/07/09 09:27:21;;;;;;;5.97;4.10;;;;;;;32.57;33.87;100110.50;5052517;28;20098;-82
2023/07/09 09:29:47;;;;;;;6.40;4.43;;;;;;;32.66;34.53;100111.03;5052234;28;20052;-82
2023/07/09 09:32:27;;;;;;;5.63;4.00;;;;;;;32.72;35.74;100126.50;5052455;28;20045;-82
2023/07/09 09:34:55;;;;;;;6.85;3.72;;;;;;;32.87;35.31;100125.28;5052434;28;20048;-82
2023/07/09 09:37:29;;;;;;;5.95;3.90;;;;;;;32.97;35.04;100120.09;5052424;28;20049;-82
2023/07/09 09:39:56;;;;;;;7.40;4.40;;;;;;;33.10;35.08;100115.59;5014661;28;20411;-82
2023/07/09 09:42:42;;;;;;;6.45;4.00;;;;;;;33.22;35.00;100113.75;5032352;28;20423;-82
2023/07/09 09:45:15;;;;;;;5.50;4.05;;;;;;;33.32;33.98;100118.66;5032503;28;20053;-82
2023/07/09 09:47:43;;;;;;;5.97;4.00;;;;;;;33.45;34.37;100114.09;5032235;28;20064;-82
2023/07/09 09:50:21;;;;;;;5.28;3.97;;;;;;;33.52;35.37;100123.00;5051220;28;20566;-82
2023/07/09 09:52:49;;;;;;;6.65;4.28;;;;;;;33.65;35.02;100122.03;5034504;28;20072;-82
2023/07/09 09:55:22;;;;;;;6.00;4.20;;;;;;;33.71;33.64;100121.09;5052079;28;20053;-82
2023/07/09 09:57:57;;;;;;;5.57;4.50;;;;;;;33.82;33.81;100124.91;5034289;28;20060;-82
2023/07/09 10:00:26;;;;;;;6.22;4.72;;;;;;;33.92;33.56;100122.47;5052028;28;20059;-82
2023/07/09 10:02:58;;;;;;;5.65;4.35;;;;;;;34.00;33.15;100114.97;5051932;28;20561;-82
2023/07/09 10:05:29;;;;;;;;;;;;;;;34.08;34.04;100117.38;5052287;28;20092;-82
2023/07/09 10:08:31;;;;;;;7.88;3.92;;;;;;;34.20;33.69;100122.88;5051983;28;20035;-82
2023/07/09 10:11:11;;;;;;;6.50;4.22;;;;;;;34.31;33.96;100122.03;5010712;28;20112;-82
2023/07/09 10:13:43;;;;;;;7.53;4.95;;;;;;;34.41;33.57;100117.88;5028375;28;20049;-82
2023/07/09 10:16:35;;;;;;;7.05;4.32;;;;;;;34.49;33.21;100109.31;5031817;28;20049;-82
2023/07/09 10:19:17;;;;;;;6.90;4.68;;;;;;;34.62;34.47;100119.22;5032644;28;20088;-82
2023/07/09 10:21:51;;;;;;;6.30;4.65;;;;;;;34.72;33.01;100109.56;5051995;28;20061;-82
2023/07/09 10:24:32;;;;;;;4.68;4.18;;;;;;;34.80;32.52;100114.69;5051759;28;20123;-82
2023/07/09 10:27:38;;;;;;;7.10;4.97;;;;;;;34.89;32.58;100117.84;5030248;28;20084;-82
2023/07/09 10:30:37;;;;;;;5.30;4.25;;;;;;;35.00;31.80;100114.25;5050851;28;20499;-82
2023/07/09 10:33:10;;;;;;;5.43;4.32;;;;;;;35.14;32.37;100114.00;5050340;28;20122;-82
2023/07/09 10:35:57;;;;;;;7.63;4.63;;;;;;;35.19;32.98;100117.69;5051258;28;20052;-82
2023/07/09 10:38:51;;;;;;;6.57;4.68;;;;;;;35.29;32.90;100108.00;5051429;28;20059;-82
2023/07/09 10:41:20;;;;;;;5.22;4.60;;;;;;;35.44;32.99;100111.06;5051197;28;20053;-82
2023/07/09 10:44:05;;;;;;;5.82;4.18;;;;;;;35.56;31.46;100105.50;5034391;28;20052;-82
2023/07/09 10:46:34;;;;;;;6.78;4.75;;;;;;;35.73;31.57;100105.56;5033325;28;20045;-82
2023/07/09 10:49:06;;;;;;;6.97;4.47;;;;;;;35.92;31.67;100096.28;5033095;28;20057;-82
2023/07/09 10:51:55;;;;;;;4.65;3.78;;;;;;;36.14;31.02;100099.09;5051009;28;20049;-82
2023/07/09 10:54:31;;;;;;;5.82;4.03;;;;;;;36.46;30.43;100109.44;5051043;28;20090;-82
2023/07/09 10:57:05;;;;;;;4.82;4.10;;;;;;;36.83;30.90;100105.31;5050746;28;20051;-82
2023/07/09 10:59:36;;;;;;;4.43;3.78;;;;;;;37.26;31.51;100100.06;5051089;28;20443;-82
2023/07/09 11:02:08;;;;;;;7.78;4.00;;;;;;;37.75;30.00;100098.34;5050831;28;20084;-82
2023/07/09 11:04:41;;;;;;;5.90;4.38;;;;;;;38.25;30.57;100092.69;5051017;28;20506;-82
2023/07/09 11:07:14;;;;;;;5.68;4.57;;;;;;;38.75;30.03;100095.16;5050681;28;20053;-82
2023/07/09 11:09:46;;;;;;;6.43;4.10;;;;;;;39.26;28.79;100095.63;5050531;28;20053;-82
2023/07/09 11:12:13;;;;;;;7.00;3.90;;;;;;;39.68;28.10;100086.34;5050485;28;20087;-82
2023/07/09 11:14:45;;;;;;;6.07;3.50;;;;;;;40.07;27.25;100095.16;5050667;28;20411;-83
2023/07/09 11:17:15;;;;;;;4.00;3.28;;;;;;;40.44;27.85;100085.75;5031187;28;20585;-83
2023/07/09 11:19:45;;;;;;;4.40;3.22;;;;;;;40.77;25.91;100083.38;5031078;28;20052;-82
2023/07/09 11:22:21;;;;;;;4.22;3.70;;;;;;;41.08;25.64;100087.13;5023439;28;20048;-82
2023/07/09 11:25:10;;;;;;;6.20;3.40;;;;;;;41.36;24.09;100082.81;5033466;28;20053;-82
2023/07/09 11:27:56;;;;;;;4.85;3.15;;;;;;;41.62;24.60;100082.59;5033482;28;20049;-83
2023/07/09 11:30:26;;;;;;;4.22;3.22;;;;;;;41.90;23.68;100084.88;5050928;28;20053;-82
2023/07/09 11:32:57;;;;;;;7.20;4.10;;;;;;;42.10;24.65;100077.47;5050996;28;20060;-83
2023/07/09 11:35:47;;;;;;;4.53;3.33;;;;;;;42.32;25.37;100077.00;5036074;28;20057;-83
2023/07/09 11:38:45;;;;;;;5.25;3.47;;;;;;;42.49;25.51;100078.47;5050909;28;20049;-82
2023/07/09 11:41:28;;;;;;;4.18;3.20;;;;;;;42.70;24.42;100073.53;5051204;28;20077;-81
2023/07/09 11:44:11;;;;;;;5.45;3.80;;;;;;;42.86;22.93;100071.38;5050915;28;20059;-81
2023/07/09 11:46:57;;;;;;;3.67;3.28;;;;;;;43.01;24.01;100073.09;5050307;28;20057;-82
2023/07/09 11:49:30;;;;;;;3.97;3.30;;;;;;;43.20;23.28;100066.78;5050481;28;20044;-82
2023/07/09 11:52:03;;;;;;;3.63;3.03;;;;;;;43.32;22.96;100071.84;5050694;28;20056;-82
2023/07/09 11:54:35;;;;;;;7.40;3.35;;;;;;;43.46;22.54;100063.63;5030821;28;20064;-80
2023/07/09 11:57:02;;;;;;;20.75;4.63;;;;;;;43.59;22.85;100057.28;5013093;28;20136;-80
2023/07/09 11:59:29;;;;;;;7.65;4.32;;;;;;;43.69;22.77;100047.16;5013005;28;20148;-79
2023/07/09 12:02:00;;;;;;;4.55;3.47;;;;;;;43.76;23.30;100047.56;5013217;28;20060;-82
2023/07/09 12:04:34;;;;;;;4.65;3.30;;;;;;;43.83;21.59;100052.72;5047269;28;20436;-81
2023/07/09 12:07:02;;;;;;;3.28;2.80;;;;;;;43.94;22.42;100043.09;5049824;28;20056;-81
2023/07/09 12:09:40;;;;;;;8.35;3.53;;;;;;;44.03;21.57;100050.69;5049863;28;20500;-81
2023/07/09 12:12:41;;;;;;;3.53;3.22;;;;;;;44.17;23.05;100040.44;5032025;28;20139;-81
2023/07/09 12:15:28;;;;;;;3.78;3.25;;;;;;;44.38;22.85;100032.56;5038731;28;20049;-81
2023/07/09 12:18:02;;;;;;;6.22;2.90;;;;;;;44.64;22.12;100031.16;5031995;28;20049;-86
2023/07/09 12:20:31;;;;;;;4.60;2.90;;;;;;;44.83;21.03;100031.03;5049574;28;20488;-81
2023/07/09 12:22:57;;;;;;;6.90;2.83;;;;;;;45.00;20.84;100010.94;5050027;28;20060;-81
2023/07/09 12:25:27;;;;;;;4.00;3.33;;;;;;;45.16;21.86;100021.69;5049541;28;20049;-81
2023/07/09 12:27:59;;;;;;;4.03;3.03;;;;;;;45.32;20.22;100012.97;5049692;28;20443;-81
2023/07/09 12:30:26;;;;;;;5.15;3.30;;;;;;;45.46;20.22;100021.22;5328075;22;20083;-78
2023/07/09 12:32:52;;;;;;;3.95;2.95;;;;;;;45.58;20.39;100015.13;5070314;28;20059;-79
2023/07/09 12:35:19;;;;;;;5.28;2.88;;;;;;;45.70;19.46;100006.16;5069737;28;20044;-78
2023/07/09 12:37:47;;;;;;;3.20;2.90;;;;;;;45.83;20.08;100008.03;5052292;28;20108;-78
2023/07/09 12:40:21;;;;;;;3.42;2.80;;;;;;;45.97;20.80;100007.94;5070159;28;20052;-78
2023/07/09 12:42:48;;;;;;;4.22;3.25;;;;;;;46.15;20.42;100005.22;5052813;28;20106;-78
2023/07/09 12:45:20;;;;;;;4.78;2.70;;;;;;;46.28;20.14;100009.84;5070164;28;20048;-79
2023/07/09 12:47:47;;;;;;;;;;;;;;;46.41;21.52;100007.25;5070725;28;20049;-79
2023/07/09 12:50:34;;;;;;;4.70;2.78;;;;;;;46.63;20.19;100011.84;5070749;28;19926;-79
2023/07/09 12:53:11;;;;;;;3.45;2.92;;;;;;;46.82;19.02;100006.00;5052944;28;20041;-78
2023/07/09 12:55:40;;;;;;;4.47;2.70;;;;;;;46.93;18.72;100012.03;5053779;28;20090;-79
2023/07/09 12:58:11;;;;;;;3.08;2.78;;;;;;;47.02;19.94;100005.66;5073800;28;20048;-79
2023/07/09 13:00:38;;;;;;;7.75;3.08;;;;;;;47.10;19.08;100007.63;5056061;28;20052;-79
2023/07/09 13:03:14;;;;;;;4.53;2.70;;;;;;;47.12;18.52;99998.94;5073727;28;20506;-78
2023/07/09 13:06:03;;;;;;;3.13;2.35;;;;;;;47.16;18.58;100006.31;5073584;28;20060;-78
2023/07/09 13:08:32;;;;;;;3.72;2.63;;;;;;;47.27;18.57;99990.06;5073656;28;20059;-79
2023/07/09 13:11:00;;;;;;;5.85;2.55;;;;;;;47.31;17.69;99988.25;5055287;28;20569;-79
2023/07/09 13:13:28;;;;;;;7.15;3.10;;;;;;;47.32;18.17;99978.75;5073631;28;20471;-78
2023/07/09 13:15:58;;;;;;;5.15;2.58;;;;;;;47.30;18.43;99980.22;5073413;28;20056;-79
2023/07/09 13:18:26;;;;;;;5.78;2.90;;;;;;;47.28;18.20;99974.16;5073535;28;20044;-80
2023/07/09 13:20:55;;;;;;;6.88;3.20;;;;;;;47.24;17.78;99976.81;5073563;28;20040;-79
2023/07/09 13:23:28;;;;;;;3.17;2.85;;;;;;;47.13;18.60;99978.28;5073375;28;20060;-79
2023/07/09 13:25:56;;;;;;;4.95;3.25;;;;;;;47.00;18.27;99969.75;5073521;28;20052;-78
2023/07/09 13:28:29;;;;;;;4.68;3.15;;;;;;;46.81;18.13;99975.69;5073151;28;20067;-79
2023/07/09 13:31:00;;;;;;;4.88;2.72;;;;;;;46.67;17.74;99970.31;5055239;28;20147;-80
2023/07/09 13:33:27;;;;;;;4.57;3.10;;;;;;;46.55;18.31;99963.38;5055793;28;20091;-79
2023/07/09 13:35:54;;;;;;;4.13;3.03;;;;;;;46.46;18.79;99968.13;5073061;28;20294;-77
2023/07/09 13:38:23;;;;;;;4.75;2.72;;;;;;;46.35;18.43;99966.81;5072957;28;20051;-79
2023/07/09 13:40:55;;;;;;;3.60;2.90;;;;;;;46.26;19.32;99975.13;5073348;28;20049;-79
2023/07/09 13:43:34;;;;;;;4.30;2.80;;;;;;;46.18;18.92;99977.56;5055541;28;20510;-79
2023/07/09 13:46:03;;;;;;;5.65;2.70;;;;;;;46.17;18.93;99977.88;5072612;28;20056;-79
2023/07/09 13:48:32;;;;;;;3.63;2.83;;;;;;;46.06;18.69;99983.75;5073431;28;20060;-77
2023/07/09 13:50:59;;;;;;;6.00;3.00;;;;;;;45.91;19.25;99971.09;5073000;28;20070;-77
2023/07/09 13:53:31;;;;;;;4.65;2.70;;;;;;;45.65;19.09;99973.75;5073237;28;20056;-77
2023/07/09 13:55:58;;;;;;;4.32;3.10;;;;;;;45.39;18.65;99969.69;5072800;28;20087;-77
2023/07/09 13:58:27;;;;;;;6.30;2.97;;;;;;;45.10;20.10;99973.75;5073076;28;20443;-77
2023/07/09 14:01:09;;;;;;;3.92;2.80;;;;;;;44.80;19.57;99967.00;5072453;28;20135;-77
2023/07/09 14:03:36;;;;;;;6.60;2.92;;;;;;;44.64;20.31;99964.53;5061518;28;20452;-78
2023/07/09 14:06:04;;;;;;;3.75;2.65;;;;;;;44.54;20.03;99967.56;5072176;28;20503;-78
2023/07/09 14:08:30;;;;;;;13.50;3.15;;;;;;;44.49;20.80;99960.16;5054269;28;20044;-79
2023/07/09 14:10:57;;;;;;;7.90;3.55;;;;;;;44.47;20.34;99959.66;5054176;28;20071;-79
2023/07/09 14:13:25;;;;;;;4.50;2.95;;;;;;;44.46;20.29;99960.81;5071697;28;20060;-79
2023/07/09 14:15:56;;;;;;;4.75;3.10;;;;;;;44.41;19.68;99958.97;5071855;28;20084;-79
2023/07/09 14:18:32;;;;;;;5.90;2.95;;;;;;;44.31;20.44;99945.31;5072472;28;20044;-79
2023/07/09 14:21:00;;;;;;;13.80;3.45;;;;;;;44.18;19.74;99933.06;5071523;28;20044;-79
2023/07/09 14:23:27;;;;;;;8.50;3.42;;;;;;;44.00;19.80;99930.97;5071259;28;20051;-80
2023/07/09 14:25:54;;;;;;;4.50;3.50;;;;;;;43.84;20.24;99922.09;5070704;28;20045;-79
2023/07/09 14:28:21;;;;;;;6.30;3.75;;;;;;;43.68;19.60;99906.91;5070474;28;20526;-79
2023/07/09 14:30:50;;;;;;;3.55;3.10;;;;;;;43.55;19.72;99903.84;5070755;28;20052;-79
2023/07/09 14:33:19;;;;;;;5.40;3.15;;;;;;;43.41;19.93;99898.25;5070277;28;20048;-79
2023/07/09 14:35:47;;;;;;;5.93;3.38;;;;;;;43.33;20.28;99894.25;5052675;28;20044;-79
2023/07/09 14:38:25;;;;;;;6.82;3.88;;;;;;;43.25;20.23;99894.13;5052722;28;20048;-80
2023/07/09 14:40:55;;;;;;;3.58;3.28;;;;;;;43.28;20.78;99885.19;5070848;28;20500;-80
2023/07/09 14:43:22;;;;;;;10.02;3.88;;;;;;;43.30;20.57;99885.69;5071015;28;20101;-78
2023/07/09 14:45:49;;;;;;;3.45;2.88;;;;;;;43.30;20.70;99881.00;5071131;28;20044;-78
2023/07/09 14:48:20;;;;;;;3.70;2.95;;;;;;;43.28;20.47;99876.88;5063668;28;20091;-78
2023/07/09 14:50:49;;;;;;;5.88;3.92;;;;;;;43.22;20.93;99877.00;5062455;28;20053;-79
2023/07/09 14:53:27;;;;;;;5.13;3.35;;;;;;;43.04;20.77;99872.34;5069755;28;20048;-79
2023/07/09 14:55:54;;;;;;;5.57;3.03;;;;;;;42.90;20.81;99883.34;5050644;28;20088;-80
2023/07/09 14:58:23;;;;;;;6.25;3.53;;;;;;;42.63;21.28;99884.91;5050309;28;20504;-79
2023/07/09 15:00:50;;;;;;;4.72;3.25;;;;;;;42.34;20.96;99886.69;5051114;28;20049;-79
2023/07/09 15:03:23;;;;;;;4.88;3.05;;;;;;;42.00;21.89;99894.00;5053298;28;20049;-79
2023/07/09 15:05:50;;;;;;;3.85;3.15;;;;;;;41.72;22.21;99895.72;5053322;28;20118;-80
2023/07/09 15:08:21;;;;;;;9.43;3.55;;;;;;;41.42;22.84;99890.25;5053097;28;20080;-79
2023/07/09 15:10:50;;;;;;;4.45;3.35;;;;;;;41.14;22.78;99893.53;5070788;28;20488;-79
2023/07/09 15:13:18;;;;;;;4.50;3.20;;;;;;;40.88;23.46;99877.19;5053191;28;20421;-79
2023/07/09 15:15:44;;;;;;;4.13;3.35;;;;;;;40.61;23.65;99874.88;5070270;28;20132;-79
2023/07/09 15:18:14;;;;;;;6.70;3.50;;;;;;;40.31;24.17;99865.66;5070197;28;20109;-79
2023/07/09 15:20:47;;;;;;;12.07;4.20;;;;;;;40.03;24.53;99859.78;5070798;28;20051;-79
2023/07/09 15:23:14;;;;;;;6.15;3.63;;;;;;;39.80;24.84;99862.84;5052883;28;20076;-79
2023/07/09 15:25:40;;;;;;;4.63;3.38;;;;;;;39.54;25.57;99851.13;5070184;28;20045;-79
2023/07/09 15:28:10;;;;;;;5.47;3.50;;;;;;;39.28;26.41;99856.66;5052259;28;20048;-79
2023/07/09 15:30:38;;;;;;;4.78;3.60;;;;;;;39.02;26.27;99854.75;5070433;28;20758;-80
2023/07/09 15:33:05;;;;;;;4.25;3.47;;;;;;;38.78;26.59;99868.22;5070979;28;20098;-79
2023/07/09 15:35:36;;;;;;;4.85;3.55;;;;;;;38.53;26.26;99873.38;5052649;28;20040;-80
2023/07/09 15:38:24;;;;;;;5.43;3.30;;;;;;;38.22;26.85;99873.31;5052621;28;20083;-83
2023/07/09 15:40:51;;;;;;;7.68;3.53;;;;;;;38.06;27.67;99867.75;5052405;28;20052;-78
2023/07/09 15:43:18;;;;;;;12.05;3.90;;;;;;;37.86;28.36;99873.16;5070285;28;20053;-79
2023/07/09 15:45:48;;;;;;;16.73;4.43;;;;;;;37.64;28.15;99883.22;5069631;28;20080;-78
2023/07/09 15:48:23;;;;;;;9.18;4.20;;;;;;;37.40;28.75;99894.56;5069782;28;20063;-79
2023/07/09 15:50:50;;;;;;;24.90;5.72;;;;;;;37.24;28.90;99896.41;5052021;28;20531;-78
2023/07/09 15:53:17;;;;;;;33.50;6.97;;;;;;;37.08;29.50;99897.31;5069559;28;20059;-84
2023/07/09 15:55:44;;;;;;;17.70;5.57;;;;;;;36.89;29.21;99875.78;5070186;28;20080;-82
2023/07/09 15:58:18;;;;;;;4.50;3.55;;;;;;;36.69;28.76;99874.50;5070056;28;20615;-83
2023/07/09 16:00:45;;;;;;;5.32;3.50;;;;;;;36.56;28.99;99875.72;5069371;28;20507;-84
2023/07/09 16:03:13;;;;;;;7.20;3.70;;;;;;;36.41;29.08;99879.13;5068742;28;20059;-82
2023/07/09 16:05:49;;;;;;;19.05;4.47;;;;;;;36.25;29.71;99892.66;5069736;28;20715;-82
2023/07/09 16:08:15;;;;;;;5.93;3.95;;;;;;;36.12;29.39;99899.34;5070382;28;20052;-83
2023/07/09 16:10:42;;;;;;;10.60;4.03;;;;;;;35.98;29.29;99892.56;5070140;28;20496;-83
2023/07/09 16:13:27;;;;;;;8.68;4.05;;;;;;;35.79;28.99;99900.25;5052170;28;20055;-83
2023/07/09 16:15:54;;;;;;;4.10;3.53;;;;;;;35.72;29.71;99890.31;5051550;28;20769;-82